sensor_id;sensor_type;location;lat;lon;timestamp;P1;durP1;ratioP1;P2;durP2;ratioP2
59830;SDS011;45711;50.108;13.712;2024-01-27T00:00:15;4.43;;;0.80;;
59830;SDS011;45711;50.108;13.712;2024-01-27T00:02:41;6.85;;;0.80;;
59830;SDS011;45711;50.108;13.712;2024-01-27T00:05:07;4.68;;;1.00;;
59830;SDS011;45711;50.108;13.712;2024-01-27T00:07:33;6.75;;;1.20;;
59830;SDS011;45711;50.108;13.712;2024-01-27T00:09:58;2.60;;;1.17;;
59830;SDS011;45711;50.108;13.712;2024-01-27T00:12:25;3.85;;;0.90;;
59830;SDS011;45711;50.108;13.712;2024-01-27T00:14:51;3.38;;;1.23;;
59830;SDS011;45711;50.108;13.712;2024-01-27T00:17:18;1.38;;;0.52;;
59830;SDS011;45711;50.108;13.712;2024-01-27T00:19:49;1.77;;;0.60;;
59830;SDS011;45711;50.108;13.712;2024-01-27T00:22:17;2.28;;;0.90;;
59830;SDS011;45711;50.108;13.712;2024-01-27T00:24:48;3.80;;;1.05;;
59830;SDS011;45711;50.108;13.712;2024-01-27T00:27:17;2.70;;;1.00;;
59830;SDS011;45711;50.108;13.712;2024-01-27T00:29:42;2.53;;;0.70;;
59830;SDS011;45711;50.108;13.712;2024-01-27T00:32:08;3.65;;;0.77;;
59830;SDS011;45711;50.108;13.712;2024-01-27T00:34:35;3.50;;;0.77;;
59830;SDS011;45711;50.108;13.712;2024-01-27T00:37:01;1.85;;;0.70;;
59830;SDS011;45711;50.108;13.712;2024-01-27T00:39:26;2.90;;;0.70;;
59830;SDS011;45711;50.108;13.712;2024-01-27T00:41:52;3.55;;;0.77;;
59830;SDS011;45711;50.108;13.712;2024-01-27T00:44:19;4.70;;;0.93;;
59830;SDS011;45711;50.108;13.712;2024-01-27T00:46:45;2.50;;;0.93;;
59830;SDS011;45711;50.108;13.712;2024-01-27T00:49:11;3.72;;;0.75;;
59830;SDS011;45711;50.108;13.712;2024-01-27T00:51:38;2.30;;;0.90;;
59830;SDS011;45711;50.108;13.712;2024-01-27T00:54:05;3.72;;;1.00;;
59830;SDS011;45711;50.108;13.712;2024-01-27T00:56:31;5.00;;;0.63;;
59830;SDS011;45711;50.108;13.712;2024-01-27T00:58:57;2.58;;;0.85;;
59830;SDS011;45711;50.108;13.712;2024-01-27T01:01:23;5.07;;;0.80;;
59830;SDS011;45711;50.108;13.712;2024-01-27T01:03:48;2.55;;;0.95;;
59830;SDS011;45711;50.108;13.712;2024-01-27T01:06:14;1.23;;;0.47;;
59830;SDS011;45711;50.108;13.712;2024-01-27T01:08:41;6.57;;;0.75;;
59830;SDS011;45711;50.108;13.712;2024-01-27T01:11:06;2.70;;;0.88;;
59830;SDS011;45711;50.108;13.712;2024-01-27T01:13:32;5.65;;;0.90;;
59830;SDS011;45711;50.108;13.712;2024-01-27T01:15:57;1.63;;;0.57;;
59830;SDS011;45711;50.108;13.712;2024-01-27T01:18:23;2.53;;;0.70;;
59830;SDS011;45711;50.108;13.712;2024-01-27T01:20:49;3.55;;;0.60;;
59830;SDS011;45711;50.108;13.712;2024-01-27T01:23:14;1.42;;;0.60;;
59830;SDS011;45711;50.108;13.712;2024-01-27T01:25:41;0.65;;;0.50;;
59830;SDS011;45711;50.108;13.712;2024-01-27T01:28:07;5.13;;;0.73;;
59830;SDS011;45711;50.108;13.712;2024-01-27T01:30:33;1.42;;;0.60;;
59830;SDS011;45711;50.108;13.712;2024-01-27T01:32:58;4.20;;;0.77;;
59830;SDS011;45711;50.108;13.712;2024-01-27T01:35:24;2.65;;;0.98;;
59830;SDS011;45711;50.108;13.712;2024-01-27T01:37:50;4.50;;;1.13;;
59830;SDS011;45711;50.108;13.712;2024-01-27T01:40:15;5.30;;;2.42;;
59830;SDS011;45711;50.108;13.712;2024-01-27T01:42:42;3.08;;;0.80;;
59830;SDS011;45711;50.108;13.712;2024-01-27T01:45:08;3.40;;;0.88;;
59830;SDS011;45711;50.108;13.712;2024-01-27T01:47:37;2.05;;;0.60;;
59830;SDS011;45711;50.108;13.712;2024-01-27T01:50:03;10.02;;;1.50;;
59830;SDS011;45711;50.108;13.712;2024-01-27T01:52:31;3.42;;;1.30;;
59830;SDS011;45711;50.108;13.712;2024-01-27T01:54:56;3.08;;;1.50;;
59830;SDS011;45711;50.108;13.712;2024-01-27T01:57:22;5.78;;;1.15;;
59830;SDS011;45711;50.108;13.712;2024-01-27T01:59:49;5.97;;;1.55;;
59830;SDS011;45711;50.108;13.712;2024-01-27T02:02:14;6.18;;;2.72;;
59830;SDS011;45711;50.108;13.712;2024-01-27T02:04:41;12.07;;;5.65;;
59830;SDS011;45711;50.108;13.712;2024-01-27T02:07:07;26.23;;;8.77;;
59830;SDS011;45711;50.108;13.712;2024-01-27T02:09:33;19.50;;;8.23;;
59830;SDS011;45711;50.108;13.712;2024-01-27T02:11:58;7.55;;;1.50;;
59830;SDS011;45711;50.108;13.712;2024-01-27T02:14:24;3.85;;;1.08;;
59830;SDS011;45711;50.108;13.712;2024-01-27T02:16:53;2.88;;;1.15;;
59830;SDS011;45711;50.108;13.712;2024-01-27T02:19:19;4.40;;;2.00;;
59830;SDS011;45711;50.108;13.712;2024-01-27T02:21:45;5.18;;;1.85;;
59830;SDS011;45711;50.108;13.712;2024-01-27T02:24:11;3.75;;;1.15;;
59830;SDS011;45711;50.108;13.712;2024-01-27T02:26:37;6.25;;;1.30;;
59830;SDS011;45711;50.108;13.712;2024-01-27T02:29:03;4.20;;;1.08;;
59830;SDS011;45711;50.108;13.712;2024-01-27T02:31:28;4.50;;;1.60;;
59830;SDS011;45711;50.108;13.712;2024-01-27T02:33:54;6.13;;;1.73;;
59830;SDS011;45711;50.108;13.712;2024-01-27T02:36:20;6.20;;;1.30;;
59830;SDS011;45711;50.108;13.712;2024-01-27T02:38:45;7.75;;;1.38;;
59830;SDS011;45711;50.108;13.712;2024-01-27T02:41:12;6.43;;;1.65;;
59830;SDS011;45711;50.108;13.712;2024-01-27T02:43:38;7.93;;;1.10;;
59830;SDS011;45711;50.108;13.712;2024-01-27T02:46:05;7.03;;;1.98;;
59830;SDS011;45711;50.108;13.712;2024-01-27T02:48:31;8.00;;;1.92;;
59830;SDS011;45711;50.108;13.712;2024-01-27T02:50:57;9.80;;;1.13;;
59830;SDS011;45711;50.108;13.712;2024-01-27T02:53:23;2.47;;;0.90;;
59830;SDS011;45711;50.108;13.712;2024-01-27T02:55:48;4.32;;;1.10;;
59830;SDS011;45711;50.108;13.712;2024-01-27T02:58:15;2.42;;;1.27;;
59830;SDS011;45711;50.108;13.712;2024-01-27T03:00:41;3.05;;;1.30;;
59830;SDS011;45711;50.108;13.712;2024-01-27T03:03:06;9.05;;;1.08;;
59830;SDS011;45711;50.108;13.712;2024-01-27T03:05:32;4.03;;;1.77;;
59830;SDS011;45711;50.108;13.712;2024-01-27T03:07:57;5.28;;;2.25;;
59830;SDS011;45711;50.108;13.712;2024-01-27T03:10:23;7.13;;;1.60;;
59830;SDS011;45711;50.108;13.712;2024-01-27T03:12:49;10.57;;;1.80;;
59830;SDS011;45711;50.108;13.712;2024-01-27T03:15:16;7.45;;;1.60;;
59830;SDS011;45711;50.108;13.712;2024-01-27T03:17:41;7.85;;;1.73;;
59830;SDS011;45711;50.108;13.712;2024-01-27T03:20:07;3.38;;;1.30;;
59830;SDS011;45711;50.108;13.712;2024-01-27T03:22:34;4.15;;;0.90;;
59830;SDS011;45711;50.108;13.712;2024-01-27T03:24:59;4.97;;;1.05;;
59830;SDS011;45711;50.108;13.712;2024-01-27T03:27:25;7.25;;;1.40;;
59830;SDS011;45711;50.108;13.712;2024-01-27T03:29:50;11.80;;;2.10;;
59830;SDS011;45711;50.108;13.712;2024-01-27T03:32:17;6.07;;;1.25;;
59830;SDS011;45711;50.108;13.712;2024-01-27T03:34:43;9.20;;;1.35;;
59830;SDS011;45711;50.108;13.712;2024-01-27T03:37:10;5.80;;;1.00;;
59830;SDS011;45711;50.108;13.712;2024-01-27T03:39:36;8.13;;;1.40;;
59830;SDS011;45711;50.108;13.712;2024-01-27T03:42:02;9.30;;;1.00;;
59830;SDS011;45711;50.108;13.712;2024-01-27T03:44:28;6.50;;;1.30;;
59830;SDS011;45711;50.108;13.712;2024-01-27T03:46:53;11.27;;;1.10;;
59830;SDS011;45711;50.108;13.712;2024-01-27T03:49:20;8.40;;;1.30;;
59830;SDS011;45711;50.108;13.712;2024-01-27T03:51:46;4.78;;;1.10;;
59830;SDS011;45711;50.108;13.712;2024-01-27T03:54:11;4.72;;;1.55;;
59830;SDS011;45711;50.108;13.712;2024-01-27T03:56:37;5.85;;;1.30;;
59830;SDS011;45711;50.108;13.712;2024-01-27T03:59:02;6.20;;;1.05;;
59830;SDS011;45711;50.108;13.712;2024-01-27T04:01:29;3.05;;;1.08;;
59830;SDS011;45711;50.108;13.712;2024-01-27T04:03:55;6.45;;;0.90;;
59830;SDS011;45711;50.108;13.712;2024-01-27T04:06:22;2.58;;;1.00;;
59830;SDS011;45711;50.108;13.712;2024-01-27T04:08:47;4.72;;;0.98;;
59830;SDS011;45711;50.108;13.712;2024-01-27T04:11:18;4.57;;;1.15;;
59830;SDS011;45711;50.108;13.712;2024-01-27T04:13:45;3.55;;;0.80;;
59830;SDS011;45711;50.108;13.712;2024-01-27T04:16:10;6.30;;;1.05;;
59830;SDS011;45711;50.108;13.712;2024-01-27T04:18:36;3.75;;;1.10;;
59830;SDS011;45711;50.108;13.712;2024-01-27T04:21:03;4.70;;;1.00;;
59830;SDS011;45711;50.108;13.712;2024-01-27T04:23:30;4.68;;;1.13;;
59830;SDS011;45711;50.108;13.712;2024-01-27T04:25:57;5.40;;;0.90;;
59830;SDS011;45711;50.108;13.712;2024-01-27T04:28:23;6.65;;;1.00;;
59830;SDS011;45711;50.108;13.712;2024-01-27T04:30:48;4.28;;;0.90;;
59830;SDS011;45711;50.108;13.712;2024-01-27T04:33:14;7.18;;;1.20;;
59830;SDS011;45711;50.108;13.712;2024-01-27T04:35:40;4.15;;;0.80;;
59830;SDS011;45711;50.108;13.712;2024-01-27T04:38:07;3.83;;;0.90;;
59830;SDS011;45711;50.108;13.712;2024-01-27T04:40:34;3.85;;;1.05;;
59830;SDS011;45711;50.108;13.712;2024-01-27T04:43:00;3.40;;;0.82;;
59830;SDS011;45711;50.108;13.712;2024-01-27T04:45:26;7.07;;;1.15;;
59830;SDS011;45711;50.108;13.712;2024-01-27T04:47:52;2.83;;;1.08;;
59830;SDS011;45711;50.108;13.712;2024-01-27T04:50:18;5.90;;;1.10;;
59830;SDS011;45711;50.108;13.712;2024-01-27T04:52:44;10.43;;;1.55;;
59830;SDS011;45711;50.108;13.712;2024-01-27T04:55:10;8.23;;;1.23;;
59830;SDS011;45711;50.108;13.712;2024-01-27T04:57:37;4.68;;;0.82;;
59830;SDS011;45711;50.108;13.712;2024-01-27T05:00:02;7.82;;;1.05;;
59830;SDS011;45711;50.108;13.712;2024-01-27T05:02:32;5.43;;;1.40;;
59830;SDS011;45711;50.108;13.712;2024-01-27T05:04:57;8.45;;;1.02;;
59830;SDS011;45711;50.108;13.712;2024-01-27T05:07:23;3.83;;;1.02;;
59830;SDS011;45711;50.108;13.712;2024-01-27T05:09:49;7.72;;;1.73;;
59830;SDS011;45711;50.108;13.712;2024-01-27T05:12:14;6.88;;;1.15;;
59830;SDS011;45711;50.108;13.712;2024-01-27T05:14:44;7.20;;;1.10;;
59830;SDS011;45711;50.108;13.712;2024-01-27T05:17:12;7.05;;;1.38;;
59830;SDS011;45711;50.108;13.712;2024-01-27T05:19:37;6.05;;;1.00;;
59830;SDS011;45711;50.108;13.712;2024-01-27T05:22:03;4.10;;;0.88;;
59830;SDS011;45711;50.108;13.712;2024-01-27T05:24:28;4.25;;;1.00;;
59830;SDS011;45711;50.108;13.712;2024-01-27T05:26:54;7.85;;;1.20;;
59830;SDS011;45711;50.108;13.712;2024-01-27T05:29:20;4.88;;;1.05;;
59830;SDS011;45711;50.108;13.712;2024-01-27T05:31:47;9.35;;;1.30;;
59830;SDS011;45711;50.108;13.712;2024-01-27T05:34:13;3.95;;;0.80;;
59830;SDS011;45711;50.108;13.712;2024-01-27T05:36:39;9.20;;;1.20;;
59830;SDS011;45711;50.108;13.712;2024-01-27T05:39:04;5.10;;;1.08;;
59830;SDS011;45711;50.108;13.712;2024-01-27T05:41:30;8.60;;;1.65;;
59830;SDS011;45711;50.108;13.712;2024-01-27T05:43:56;9.90;;;1.48;;
59830;SDS011;45711;50.108;13.712;2024-01-27T05:46:22;8.05;;;1.23;;
59830;SDS011;45711;50.108;13.712;2024-01-27T05:48:50;7.95;;;1.30;;
59830;SDS011;45711;50.108;13.712;2024-01-27T05:51:18;7.75;;;1.35;;
59830;SDS011;45711;50.108;13.712;2024-01-27T05:53:44;5.72;;;1.55;;
59830;SDS011;45711;50.108;13.712;2024-01-27T05:56:10;5.00;;;0.70;;
59830;SDS011;45711;50.108;13.712;2024-01-27T05:58:36;9.10;;;1.30;;
59830;SDS011;45711;50.108;13.712;2024-01-27T06:01:02;8.85;;;1.60;;
59830;SDS011;45711;50.108;13.712;2024-01-27T06:03:28;6.43;;;1.30;;
59830;SDS011;45711;50.108;13.712;2024-01-27T06:05:55;7.75;;;1.20;;
59830;SDS011;45711;50.108;13.712;2024-01-27T06:08:20;7.70;;;1.50;;
59830;SDS011;45711;50.108;13.712;2024-01-27T06:10:46;4.40;;;1.08;;
59830;SDS011;45711;50.108;13.712;2024-01-27T06:13:12;5.82;;;1.30;;
59830;SDS011;45711;50.108;13.712;2024-01-27T06:15:37;8.25;;;1.55;;
59830;SDS011;45711;50.108;13.712;2024-01-27T06:18:03;14.60;;;1.50;;
59830;SDS011;45711;50.108;13.712;2024-01-27T06:20:29;5.80;;;1.38;;
59830;SDS011;45711;50.108;13.712;2024-01-27T06:22:56;8.55;;;1.27;;
59830;SDS011;45711;50.108;13.712;2024-01-27T06:25:22;9.77;;;1.67;;
59830;SDS011;45711;50.108;13.712;2024-01-27T06:27:48;10.25;;;1.38;;
59830;SDS011;45711;50.108;13.712;2024-01-27T06:30:14;11.00;;;1.77;;
59830;SDS011;45711;50.108;13.712;2024-01-27T06:32:40;8.40;;;1.20;;
59830;SDS011;45711;50.108;13.712;2024-01-27T06:35:06;7.85;;;1.38;;
59830;SDS011;45711;50.108;13.712;2024-01-27T06:37:32;9.13;;;1.75;;
59830;SDS011;45711;50.108;13.712;2024-01-27T06:39:59;6.68;;;1.40;;
59830;SDS011;45711;50.108;13.712;2024-01-27T06:42:25;6.35;;;1.58;;
59830;SDS011;45711;50.108;13.712;2024-01-27T06:44:51;8.85;;;1.50;;
59830;SDS011;45711;50.108;13.712;2024-01-27T06:47:16;7.22;;;1.90;;
59830;SDS011;45711;50.108;13.712;2024-01-27T06:49:42;11.45;;;1.45;;
59830;SDS011;45711;50.108;13.712;2024-01-27T06:52:07;11.45;;;2.28;;
59830;SDS011;45711;50.108;13.712;2024-01-27T06:54:33;7.78;;;1.45;;
59830;SDS011;45711;50.108;13.712;2024-01-27T06:57:00;7.25;;;1.50;;
59830;SDS011;45711;50.108;13.712;2024-01-27T06:59:26;9.73;;;1.90;;
59830;SDS011;45711;50.108;13.712;2024-01-27T07:01:51;8.40;;;1.45;;
59830;SDS011;45711;50.108;13.712;2024-01-27T07:04:17;7.50;;;1.20;;
59830;SDS011;45711;50.108;13.712;2024-01-27T07:06:43;4.50;;;1.67;;
59830;SDS011;45711;50.108;13.712;2024-01-27T07:09:10;10.60;;;2.00;;
59830;SDS011;45711;50.108;13.712;2024-01-27T07:11:36;8.63;;;1.75;;
59830;SDS011;45711;50.108;13.712;2024-01-27T07:14:03;8.65;;;1.95;;
59830;SDS011;45711;50.108;13.712;2024-01-27T07:16:28;5.28;;;2.10;;
59830;SDS011;45711;50.108;13.712;2024-01-27T07:18:54;7.80;;;1.55;;
59830;SDS011;45711;50.108;13.712;2024-01-27T07:21:20;9.98;;;1.90;;
59830;SDS011;45711;50.108;13.712;2024-01-27T07:23:45;9.93;;;1.98;;
59830;SDS011;45711;50.108;13.712;2024-01-27T07:26:11;12.25;;;2.80;;
59830;SDS011;45711;50.108;13.712;2024-01-27T07:28:40;10.27;;;1.90;;
59830;SDS011;45711;50.108;13.712;2024-01-27T07:31:07;8.93;;;2.10;;
59830;SDS011;45711;50.108;13.712;2024-01-27T07:33:33;10.02;;;1.55;;
59830;SDS011;45711;50.108;13.712;2024-01-27T07:36:01;9.40;;;2.13;;
59830;SDS011;45711;50.108;13.712;2024-01-27T07:38:27;6.60;;;1.35;;
59830;SDS011;45711;50.108;13.712;2024-01-27T07:40:53;14.52;;;1.40;;
59830;SDS011;45711;50.108;13.712;2024-01-27T07:43:19;3.33;;;1.15;;
59830;SDS011;45711;50.108;13.712;2024-01-27T07:45:44;2.35;;;0.80;;
59830;SDS011;45711;50.108;13.712;2024-01-27T07:48:11;9.50;;;1.55;;
59830;SDS011;45711;50.108;13.712;2024-01-27T07:50:37;0.77;;;0.73;;
59830;SDS011;45711;50.108;13.712;2024-01-27T07:53:03;6.53;;;1.25;;
59830;SDS011;45711;50.108;13.712;2024-01-27T07:55:29;11.20;;;1.92;;
59830;SDS011;45711;50.108;13.712;2024-01-27T07:57:54;5.50;;;1.35;;
59830;SDS011;45711;50.108;13.712;2024-01-27T08:00:20;8.63;;;1.13;;
59830;SDS011;45711;50.108;13.712;2024-01-27T08:02:46;3.40;;;1.13;;
59830;SDS011;45711;50.108;13.712;2024-01-27T08:05:13;8.27;;;1.48;;
59830;SDS011;45711;50.108;13.712;2024-01-27T08:07:39;7.05;;;1.35;;
59830;SDS011;45711;50.108;13.712;2024-01-27T08:10:05;5.32;;;1.00;;
59830;SDS011;45711;50.108;13.712;2024-01-27T08:12:31;3.95;;;1.08;;
59830;SDS011;45711;50.108;13.712;2024-01-27T08:14:57;6.35;;;1.27;;
59830;SDS011;45711;50.108;13.712;2024-01-27T08:17:22;4.97;;;1.30;;
59830;SDS011;45711;50.108;13.712;2024-01-27T08:19:48;8.60;;;1.45;;
59830;SDS011;45711;50.108;13.712;2024-01-27T08:22:15;8.48;;;1.42;;
59830;SDS011;45711;50.108;13.712;2024-01-27T08:24:40;5.18;;;1.38;;
59830;SDS011;45711;50.108;13.712;2024-01-27T08:27:06;8.63;;;1.70;;
59830;SDS011;45711;50.108;13.712;2024-01-27T08:29:37;9.10;;;1.40;;
59830;SDS011;45711;50.108;13.712;2024-01-27T08:32:06;4.50;;;1.35;;
59830;SDS011;45711;50.108;13.712;2024-01-27T08:34:32;5.72;;;1.63;;
59830;SDS011;45711;50.108;13.712;2024-01-27T08:36:59;5.50;;;1.13;;
59830;SDS011;45711;50.108;13.712;2024-01-27T08:39:27;6.68;;;1.50;;
59830;SDS011;45711;50.108;13.712;2024-01-27T08:41:52;7.78;;;1.65;;
59830;SDS011;45711;50.108;13.712;2024-01-27T08:44:18;5.88;;;1.33;;
59830;SDS011;45711;50.108;13.712;2024-01-27T08:46:43;7.50;;;1.65;;
59830;SDS011;45711;50.108;13.712;2024-01-27T08:49:11;7.15;;;1.25;;
59830;SDS011;45711;50.108;13.712;2024-01-27T08:51:39;4.15;;;1.17;;
59830;SDS011;45711;50.108;13.712;2024-01-27T08:54:05;5.28;;;1.20;;
59830;SDS011;45711;50.108;13.712;2024-01-27T08:56:32;9.25;;;1.55;;
59830;SDS011;45711;50.108;13.712;2024-01-27T08:58:59;7.22;;;1.45;;
59830;SDS011;45711;50.108;13.712;2024-01-27T09:01:25;4.90;;;1.35;;
59830;SDS011;45711;50.108;13.712;2024-01-27T09:03:51;4.55;;;1.33;;
59830;SDS011;45711;50.108;13.712;2024-01-27T09:06:16;10.48;;;2.08;;
59830;SDS011;45711;50.108;13.712;2024-01-27T09:08:43;4.45;;;1.17;;
59830;SDS011;45711;50.108;13.712;2024-01-27T09:11:10;8.90;;;1.80;;
59830;SDS011;45711;50.108;13.712;2024-01-27T09:13:37;5.35;;;0.98;;
59830;SDS011;45711;50.108;13.712;2024-01-27T09:16:03;11.70;;;1.50;;
59830;SDS011;45711;50.108;13.712;2024-01-27T09:18:29;10.55;;;1.65;;
59830;SDS011;45711;50.108;13.712;2024-01-27T09:20:55;7.30;;;1.48;;
59830;SDS011;45711;50.108;13.712;2024-01-27T09:23:20;3.72;;;1.23;;
59830;SDS011;45711;50.108;13.712;2024-01-27T09:25:46;13.25;;;1.75;;
59830;SDS011;45711;50.108;13.712;2024-01-27T09:28:15;5.38;;;1.60;;
59830;SDS011;45711;50.108;13.712;2024-01-27T09:30:42;4.40;;;1.25;;
59830;SDS011;45711;50.108;13.712;2024-01-27T09:33:08;4.93;;;1.42;;
59830;SDS011;45711;50.108;13.712;2024-01-27T09:35:34;4.65;;;1.23;;
59830;SDS011;45711;50.108;13.712;2024-01-27T09:37:59;6.97;;;1.75;;
59830;SDS011;45711;50.108;13.712;2024-01-27T09:40:25;6.95;;;1.27;;
59830;SDS011;45711;50.108;13.712;2024-01-27T09:42:51;9.00;;;1.60;;
59830;SDS011;45711;50.108;13.712;2024-01-27T09:45:20;8.90;;;2.10;;
59830;SDS011;45711;50.108;13.712;2024-01-27T09:47:49;3.40;;;1.30;;
59830;SDS011;45711;50.108;13.712;2024-01-27T09:50:15;7.47;;;1.40;;
59830;SDS011;45711;50.108;13.712;2024-01-27T09:52:46;12.73;;;2.60;;
59830;SDS011;45711;50.108;13.712;2024-01-27T09:55:12;5.13;;;1.50;;
59830;SDS011;45711;50.108;13.712;2024-01-27T09:57:38;10.63;;;1.67;;
59830;SDS011;45711;50.108;13.712;2024-01-27T10:00:06;4.50;;;1.20;;
59830;SDS011;45711;50.108;13.712;2024-01-27T10:02:38;6.20;;;1.25;;
59830;SDS011;45711;50.108;13.712;2024-01-27T10:05:07;10.65;;;2.15;;
59830;SDS011;45711;50.108;13.712;2024-01-27T10:07:34;7.32;;;1.10;;
59830;SDS011;45711;50.108;13.712;2024-01-27T10:09:59;5.72;;;1.63;;
59830;SDS011;45711;50.108;13.712;2024-01-27T10:12:25;14.20;;;2.30;;
59830;SDS011;45711;50.108;13.712;2024-01-27T10:14:53;10.02;;;2.55;;
59830;SDS011;45711;50.108;13.712;2024-01-27T10:17:22;15.82;;;2.70;;
59830;SDS011;45711;50.108;13.712;2024-01-27T10:19:58;10.23;;;2.30;;
59830;SDS011;45711;50.108;13.712;2024-01-27T10:22:27;10.30;;;2.20;;
59830;SDS011;45711;50.108;13.712;2024-01-27T10:24:52;10.98;;;2.33;;
59830;SDS011;45711;50.108;13.712;2024-01-27T10:27:18;12.23;;;2.28;;
59830;SDS011;45711;50.108;13.712;2024-01-27T10:29:51;13.52;;;2.53;;
59830;SDS011;45711;50.108;13.712;2024-01-27T10:32:17;10.68;;;2.60;;
59830;SDS011;45711;50.108;13.712;2024-01-27T10:34:42;9.98;;;1.90;;
59830;SDS011;45711;50.108;13.712;2024-01-27T10:37:11;3.97;;;1.45;;
59830;SDS011;45711;50.108;13.712;2024-01-27T10:39:39;6.93;;;2.58;;
59830;SDS011;45711;50.108;13.712;2024-01-27T10:42:04;9.10;;;1.75;;
59830;SDS011;45711;50.108;13.712;2024-01-27T10:44:32;10.65;;;2.13;;
59830;SDS011;45711;50.108;13.712;2024-01-27T10:47:02;4.65;;;1.42;;
59830;SDS011;45711;50.108;13.712;2024-01-27T10:49:33;6.38;;;1.98;;
59830;SDS011;45711;50.108;13.712;2024-01-27T10:52:01;9.50;;;2.42;;
59830;SDS011;45711;50.108;13.712;2024-01-27T10:54:35;6.10;;;1.70;;
59830;SDS011;45711;50.108;13.712;2024-01-27T10:57:05;9.60;;;1.42;;
59830;SDS011;45711;50.108;13.712;2024-01-27T10:59:33;9.55;;;1.88;;
59830;SDS011;45711;50.108;13.712;2024-01-27T11:02:00;8.57;;;2.03;;
59830;SDS011;45711;50.108;13.712;2024-01-27T11:04:28;7.50;;;1.70;;
59830;SDS011;45711;50.108;13.712;2024-01-27T11:07:00;11.65;;;1.80;;
59830;SDS011;45711;50.108;13.712;2024-01-27T11:09:28;6.63;;;1.33;;
59830;SDS011;45711;50.108;13.712;2024-01-27T11:11:59;7.28;;;1.40;;
59830;SDS011;45711;50.108;13.712;2024-01-27T11:14:26;10.45;;;2.35;;
59830;SDS011;45711;50.108;13.712;2024-01-27T11:16:54;4.30;;;1.38;;
59830;SDS011;45711;50.108;13.712;2024-01-27T11:19:21;5.07;;;1.48;;
59830;SDS011;45711;50.108;13.712;2024-01-27T11:21:47;7.85;;;1.35;;
59830;SDS011;45711;50.108;13.712;2024-01-27T11:24:24;8.63;;;1.67;;
59830;SDS011;45711;50.108;13.712;2024-01-27T11:26:59;6.78;;;1.52;;
59830;SDS011;45711;50.108;13.712;2024-01-27T11:29:27;5.80;;;1.38;;
59830;SDS011;45711;50.108;13.712;2024-01-27T11:31:54;5.35;;;1.52;;
59830;SDS011;45711;50.108;13.712;2024-01-27T11:34:23;4.95;;;1.50;;
59830;SDS011;45711;50.108;13.712;2024-01-27T11:36:49;8.75;;;1.75;;
59830;SDS011;45711;50.108;13.712;2024-01-27T11:39:24;7.88;;;1.50;;
59830;SDS011;45711;50.108;13.712;2024-01-27T11:41:53;7.28;;;1.58;;
59830;SDS011;45711;50.108;13.712;2024-01-27T11:44:36;6.05;;;1.20;;
59830;SDS011;45711;50.108;13.712;2024-01-27T11:47:02;5.82;;;1.50;;
59830;SDS011;45711;50.108;13.712;2024-01-27T11:49:28;5.35;;;1.33;;
59830;SDS011;45711;50.108;13.712;2024-01-27T11:51:54;9.70;;;2.08;;
59830;SDS011;45711;50.108;13.712;2024-01-27T11:54:23;5.80;;;1.50;;
59830;SDS011;45711;50.108;13.712;2024-01-27T11:56:52;6.05;;;1.63;;
59830;SDS011;45711;50.108;13.712;2024-01-27T11:59:19;8.73;;;1.40;;
59830;SDS011;45711;50.108;13.712;2024-01-27T12:01:46;9.68;;;1.80;;
59830;SDS011;45711;50.108;13.712;2024-01-27T12:04:12;7.50;;;1.70;;
59830;SDS011;45711;50.108;13.712;2024-01-27T12:06:39;6.35;;;1.52;;
59830;SDS011;45711;50.108;13.712;2024-01-27T12:09:08;6.47;;;1.70;;
59830;SDS011;45711;50.108;13.712;2024-01-27T12:11:37;12.13;;;1.65;;
59830;SDS011;45711;50.108;13.712;2024-01-27T12:14:05;12.80;;;1.70;;
59830;SDS011;45711;50.108;13.712;2024-01-27T12:16:32;3.90;;;1.30;;
59830;SDS011;45711;50.108;13.712;2024-01-27T12:18:58;7.45;;;1.40;;
59830;SDS011;45711;50.108;13.712;2024-01-27T12:21:24;4.65;;;1.58;;
59830;SDS011;45711;50.108;13.712;2024-01-27T12:23:51;9.07;;;1.50;;
59830;SDS011;45711;50.108;13.712;2024-01-27T12:26:20;14.25;;;1.88;;
59830;SDS011;45711;50.108;13.712;2024-01-27T12:28:47;6.03;;;1.17;;
59830;SDS011;45711;50.108;13.712;2024-01-27T12:31:13;5.60;;;1.30;;
59830;SDS011;45711;50.108;13.712;2024-01-27T12:33:49;10.05;;;1.52;;
59830;SDS011;45711;50.108;13.712;2024-01-27T12:36:16;10.15;;;1.40;;
59830;SDS011;45711;50.108;13.712;2024-01-27T12:38:47;7.75;;;1.40;;
59830;SDS011;45711;50.108;13.712;2024-01-27T12:41:13;2.88;;;0.90;;
59830;SDS011;45711;50.108;13.712;2024-01-27T12:43:38;6.15;;;1.30;;
59830;SDS011;45711;50.108;13.712;2024-01-27T12:46:11;8.05;;;1.40;;
59830;SDS011;45711;50.108;13.712;2024-01-27T12:48:37;9.77;;;1.73;;
59830;SDS011;45711;50.108;13.712;2024-01-27T12:51:05;6.47;;;1.48;;
59830;SDS011;45711;50.108;13.712;2024-01-27T12:53:31;5.82;;;1.30;;
59830;SDS011;45711;50.108;13.712;2024-01-27T12:55:56;12.20;;;2.13;;
59830;SDS011;45711;50.108;13.712;2024-01-27T12:58:25;11.60;;;1.33;;
59830;SDS011;45711;50.108;13.712;2024-01-27T13:00:54;4.13;;;1.60;;
59830;SDS011;45711;50.108;13.712;2024-01-27T13:03:20;4.55;;;1.02;;
59830;SDS011;45711;50.108;13.712;2024-01-27T13:05:45;10.13;;;1.45;;
59830;SDS011;45711;50.108;13.712;2024-01-27T13:08:13;6.65;;;1.27;;
59830;SDS011;45711;50.108;13.712;2024-01-27T13:10:38;11.18;;;1.58;;
59830;SDS011;45711;50.108;13.712;2024-01-27T13:13:04;5.25;;;1.13;;
59830;SDS011;45711;50.108;13.712;2024-01-27T13:15:30;5.18;;;1.27;;
59830;SDS011;45711;50.108;13.712;2024-01-27T13:17:55;9.50;;;1.40;;
59830;SDS011;45711;50.108;13.712;2024-01-27T13:20:21;6.85;;;1.10;;
59830;SDS011;45711;50.108;13.712;2024-01-27T13:22:50;8.30;;;1.65;;
59830;SDS011;45711;50.108;13.712;2024-01-27T13:25:19;6.00;;;1.40;;
59830;SDS011;45711;50.108;13.712;2024-01-27T13:27:45;11.75;;;1.63;;
59830;SDS011;45711;50.108;13.712;2024-01-27T13:30:11;5.03;;;1.20;;
59830;SDS011;45711;50.108;13.712;2024-01-27T13:32:38;14.10;;;1.63;;
59830;SDS011;45711;50.108;13.712;2024-01-27T13:35:04;9.50;;;1.95;;
59830;SDS011;45711;50.108;13.712;2024-01-27T13:37:30;8.10;;;1.50;;
59830;SDS011;45711;50.108;13.712;2024-01-27T13:40:01;9.48;;;1.58;;
59830;SDS011;45711;50.108;13.712;2024-01-27T13:42:30;6.05;;;1.52;;
59830;SDS011;45711;50.108;13.712;2024-01-27T13:44:56;8.23;;;1.73;;
59830;SDS011;45711;50.108;13.712;2024-01-27T13:47:22;8.32;;;2.10;;
59830;SDS011;45711;50.108;13.712;2024-01-27T13:49:48;7.70;;;1.48;;
59830;SDS011;45711;50.108;13.712;2024-01-27T13:52:13;12.98;;;1.63;;
59830;SDS011;45711;50.108;13.712;2024-01-27T13:54:39;6.90;;;1.95;;
59830;SDS011;45711;50.108;13.712;2024-01-27T13:57:05;7.53;;;1.65;;
59830;SDS011;45711;50.108;13.712;2024-01-27T13:59:33;10.05;;;1.58;;
59830;SDS011;45711;50.108;13.712;2024-01-27T14:01:58;9.20;;;1.35;;
59830;SDS011;45711;50.108;13.712;2024-01-27T14:04:24;6.78;;;1.83;;
59830;SDS011;45711;50.108;13.712;2024-01-27T14:06:50;4.68;;;1.30;;
59830;SDS011;45711;50.108;13.712;2024-01-27T14:09:16;8.70;;;1.50;;
59830;SDS011;45711;50.108;13.712;2024-01-27T14:11:44;8.05;;;1.25;;
59830;SDS011;45711;50.108;13.712;2024-01-27T14:14:09;7.38;;;1.50;;
59830;SDS011;45711;50.108;13.712;2024-01-27T14:16:36;12.15;;;1.63;;
59830;SDS011;45711;50.108;13.712;2024-01-27T14:19:02;8.70;;;1.80;;
59830;SDS011;45711;50.108;13.712;2024-01-27T14:21:27;7.70;;;1.30;;
59830;SDS011;45711;50.108;13.712;2024-01-27T14:23:53;7.22;;;1.35;;
59830;SDS011;45711;50.108;13.712;2024-01-27T14:26:25;5.53;;;1.27;;
59830;SDS011;45711;50.108;13.712;2024-01-27T14:28:51;6.97;;;1.30;;